Time;durP1;ratioP1;P1;durP2;ratioP2;P2;SDS_P1;SDS_P2;PMS_P1;PMS_P2;Temp;Humidity;BMP_temperature;BMP_pressure;BME280_temperature;BME280_humidity;BME280_pressure;Samples;Min_cycle;Max_cycle;Signal;HPM_P1;HPM_P2
2022/01/22 00:00:22;;;;;;;19.67;6.57;;;2.60;99.90;;;;;;5052540;28;20025;-75
2022/01/22 00:02:50;;;;;;;13.35;6.68;;;2.70;99.90;;;;;;5051912;28;20025;-75
2022/01/22 00:05:17;;;;;;;17.30;6.75;;;4.80;99.90;;;;;;5052814;28;20028;-76
2022/01/22 00:07:43;;;;;;;10.93;5.20;;;2.80;99.90;;;;;;5052615;28;20052;-76
2022/01/22 00:10:19;;;;;;;17.58;6.28;;;2.70;99.90;;;;;;5052095;28;20488;-75
2022/01/22 00:15:18;;;;;;;12.43;6.28;;;2.70;99.90;;;;;;5052550;28;20505;-75
2022/01/22 00:17:44;;;;;;;19.63;6.80;;;3.80;99.90;;;;;;5052252;28;20033;-75
2022/01/22 00:20:12;;;;;;;18.05;6.68;;;2.70;99.90;;;;;;5051875;28;20392;-76
2022/01/22 00:22:38;;;;;;;11.93;7.10;;;2.70;99.90;;;;;;5051632;28;20031;-75
2022/01/22 00:25:08;;;;;;;15.73;6.72;;;3.40;99.90;;;;;;5052258;28;20112;-75
2022/01/22 00:27:35;;;;;;;15.57;6.68;;;2.70;99.90;;;;;;5052485;28;20052;-75
2022/01/22 00:30:01;;;;;;;16.98;7.25;;;2.80;99.90;;;;;;5051882;28;20029;-76
2022/01/22 00:32:27;;;;;;;15.70;7.03;;;2.80;99.90;;;;;;5052606;28;20032;-75
2022/01/22 00:34:52;;;;;;;12.77;6.38;;;2.80;99.90;;;;;;5052478;28;20037;-75
2022/01/22 00:37:18;;;;;;;17.80;7.18;;;2.60;99.90;;;;;;5052084;28;20486;-76
2022/01/22 00:39:44;;;;;;;15.23;6.60;;;2.70;99.90;;;;;;5051519;28;20049;-75
2022/01/22 00:42:14;;;;;;;13.85;6.40;;;2.70;99.90;;;;;;5051793;28;20037;-75
2022/01/22 00:44:41;;;;;;;11.50;6.63;;;2.70;99.90;;;;;;5052286;28;20029;-75
2022/01/22 00:47:07;;;;;;;13.77;6.55;;;2.80;99.90;;;;;;5051900;28;20067;-77
2022/01/22 00:49:33;;;;;;;18.02;8.30;;;2.80;99.90;;;;;;5051342;28;21668;-76
2022/01/22 00:51:59;;;;;;;15.88;7.05;;;2.70;99.90;;;;;;5052747;28;20100;-76
2022/01/22 00:54:25;;;;;;;13.75;6.57;;;2.70;99.90;;;;;;5051929;28;20611;-75
2022/01/22 00:56:51;;;;;;;12.77;6.15;;;2.70;99.90;;;;;;5052058;28;20028;-75
2022/01/22 00:59:16;;;;;;;15.38;6.07;;;2.70;99.90;;;;;;5049926;28;20025;-75
2022/01/22 01:01:42;;;;;;;14.98;6.80;;;4.30;99.90;;;;;;5052056;28;20032;-75
2022/01/22 01:04:10;;;;;;;14.55;7.50;;;2.60;99.90;;;;;;5051631;28;20025;-75
2022/01/22 01:06:36;;;;;;;9.57;5.95;;;2.70;99.90;;;;;;5051679;28;20070;-77
2022/01/22 01:09:05;;;;;;;17.42;6.43;;;2.70;99.90;;;;;;5051188;28;20028;-76
2022/01/22 01:11:33;;;;;;;14.90;6.55;;;2.70;99.90;;;;;;5052023;28;20907;-75
2022/01/22 01:14:02;;;;;;;12.70;6.55;;;2.70;99.90;;;;;;5051676;28;20115;-75
2022/01/22 01:35:22;;;;;;;12.38;6.28;;;2.80;99.90;;;;;;5051439;28;20394;-75
2022/01/22 01:37:48;;;;;;;15.48;7.47;;;2.80;99.90;;;;;;5050808;28;20036;-75
2022/01/22 01:40:18;;;;;;;15.18;6.60;;;2.70;99.90;;;;;;5049281;28;20054;-75
2022/01/22 01:45:12;;;;;;;18.00;7.55;;;2.90;99.90;;;;;;5051459;28;20032;-75
2022/01/22 01:47:40;;;;;;;14.82;7.18;;;2.80;99.90;;;;;;5051228;28;20112;-76
2022/01/22 01:50:07;;;;;;;15.55;6.85;;;4.40;99.90;;;;;;5050772;28;20448;-75
2022/01/22 01:52:46;;;;;;;18.35;7.18;;;2.80;99.90;;;;;;5051915;28;20021;-75
2022/01/22 01:55:20;;;;;;;16.45;6.90;;;2.80;99.90;;;;;;5055027;28;20047;-76
2022/01/22 01:57:46;;;;;;;19.38;7.60;;;3.80;99.90;;;;;;5055417;28;20025;-76
2022/01/22 02:00:23;;;;;;;13.13;7.18;;;2.70;99.90;;;;;;5055997;28;20374;-78
2022/01/22 02:02:50;;;;;;;15.85;7.72;;;3.60;99.90;;;;;;5055454;28;20035;-78
2022/01/22 02:05:18;;;;;;;18.52;6.53;;;2.80;99.90;;;;;;5056700;28;20120;-77
2022/01/22 02:07:45;;;;;;;17.63;6.75;;;4.10;99.90;;;;;;5055614;28;20111;-78
2022/01/22 02:10:18;;;;;;;17.05;7.55;;;2.80;99.90;;;;;;5056467;28;20516;-78
2022/01/22 02:23:54;;;;;;;16.58;8.27;;;2.80;99.90;;;;;;5069192;28;20036;-77
2022/01/22 02:26:18;;;;;;;16.95;8.15;;;3.70;99.90;;;;;;5045483;28;20382;-78
2022/01/22 02:28:49;;;;;;;13.70;8.35;;;2.60;99.90;;;;;;5055268;28;20060;-77
2022/01/22 02:31:35;;;;;;;18.05;7.38;;;2.80;99.90;;;;;;5055561;28;20450;-77
2022/01/22 02:36:36;;;;;;;15.38;8.50;;;2.80;99.90;;;;;;5055844;28;20035;-77
2022/01/22 02:41:29;;;;;;;22.70;9.57;;;2.70;99.90;;;;;;5055383;28;20385;-77
2022/01/22 02:43:55;;;;;;;22.25;8.55;;;2.70;99.90;;;;;;5055296;28;20033;-77
2022/01/22 02:46:27;;;;;;;20.52;9.10;;;2.80;99.90;;;;;;5055355;28;20036;-78
2022/01/22 02:48:55;;;;;;;13.50;8.48;;;5.10;99.90;;;;;;5054944;28;20025;-77
2022/01/22 02:51:26;;;;;;;18.83;8.23;;;3.70;99.90;;;;;;5055561;28;20056;-77
2022/01/22 02:53:55;;;;;;;17.67;8.60;;;2.70;99.90;;;;;;5055339;28;20485;-78
2022/01/22 02:56:22;;;;;;;19.55;10.00;;;2.70;99.90;;;;;;5054785;28;20044;-77
2022/01/22 02:58:49;;;;;;;20.98;9.73;;;2.70;99.90;;;;;;5054789;28;20021;-77
2022/01/22 03:01:15;;;;;;;15.85;9.40;;;2.70;99.90;;;;;;5055868;28;20044;-76
2022/01/22 03:03:41;;;;;;;22.85;8.88;;;2.80;99.90;;;;;;5055366;28;20025;-76
2022/01/22 03:06:07;;;;;;;19.08;9.20;;;2.70;99.90;;;;;;5060140;28;20051;-77
2022/01/22 03:08:33;;;;;;;17.58;7.30;;;2.80;99.90;;;;;;5055022;28;20029;-77
2022/01/22 03:11:01;;;;;;;21.05;9.60;;;3.10;99.90;;;;;;5054888;28;20494;-76
2022/01/22 03:18:46;;;;;;;18.65;8.98;;;2.70;99.90;;;;;;5055260;28;20025;-75
2022/01/22 03:21:30;;;;;;;18.92;8.63;;;2.70;99.90;;;;;;5055398;28;20025;-76
2022/01/22 03:29:37;;;;;;;16.38;8.05;;;2.80;99.90;;;;;;5053604;28;20106;-78
2022/01/22 03:32:04;;;;;;;20.25;9.60;;;2.80;99.90;;;;;;5054829;28;20044;-77
2022/01/22 03:34:36;;;;;;;17.40;8.68;;;2.80;99.90;;;;;;5039776;28;20033;-76
2022/01/22 03:37:03;;;;;;;17.83;8.80;;;2.80;99.90;;;;;;5034789;28;20109;-76
2022/01/22 03:39:28;;;;;;;24.70;9.55;;;2.80;99.90;;;;;;5039349;28;20052;-77
2022/01/22 03:41:54;;;;;;;18.45;9.85;;;3.60;99.90;;;;;;5054280;28;20037;-76
2022/01/22 03:44:19;;;;;;;18.88;9.18;;;2.80;99.90;;;;;;5054339;28;20041;-77
2022/01/22 03:46:45;;;;;;;18.02;8.80;;;2.80;99.90;;;;;;5053049;28;20055;-77
2022/01/22 03:49:12;;;;;;;17.63;9.07;;;2.90;99.90;;;;;;5037880;28;20051;-77
2022/01/22 03:51:38;;;;;;;15.63;8.57;;;3.30;99.90;;;;;;5055918;28;20022;-77
2022/01/22 03:54:04;;;;;;;16.77;8.45;;;3.50;99.90;;;;;;5056828;28;20086;-78
2022/01/22 03:56:30;;;;;;;16.13;8.65;;;2.90;99.90;;;;;;5054271;28;20029;-77
2022/01/22 03:58:55;;;;;;;19.23;10.45;;;2.90;99.90;;;;;;5054014;28;20025;-77
2022/01/22 04:04:17;;;;;;;14.35;8.15;;;2.90;99.90;;;;;;5030767;28;20120;-77
2022/01/22 04:09:15;;;;;;;14.65;7.85;;;4.70;99.90;;;;;;5052182;28;20043;-77
2022/01/22 04:11:43;;;;;;;22.23;9.52;;;3.00;99.90;;;;;;5054032;28;20030;-78
2022/01/22 04:14:17;;;;;;;17.55;8.63;;;3.00;99.90;;;;;;5052838;28;20070;-76
2022/01/22 04:16:57;;;;;;;19.45;8.82;;;3.00;99.90;;;;;;5052650;28;20123;-77
2022/01/22 04:24:54;;;;;;;17.67;8.30;;;3.00;99.90;;;;;;5055786;28;20090;-77
2022/01/22 04:27:24;;;;;;;14.68;8.38;;;3.00;99.90;;;;;;5055088;28;20040;-77
2022/01/22 04:29:51;;;;;;;18.25;8.75;;;3.00;99.90;;;;;;5052927;28;20446;-76
2022/01/22 04:32:17;;;;;;;18.08;8.18;;;3.10;99.90;;;;;;5053462;28;20025;-77
2022/01/22 04:34:43;;;;;;;18.75;8.52;;;3.10;99.90;;;;;;5058621;28;20043;-77
2022/01/22 04:37:09;;;;;;;16.55;7.25;;;3.20;99.90;;;;;;5060326;28;20029;-77
2022/01/22 04:39:36;;;;;;;18.40;6.95;;;3.10;99.90;;;;;;5073894;23;20158;-74
2022/01/22 04:42:02;;;;;;;15.07;8.73;;;3.00;99.90;;;;;;5068534;28;20040;-73
2022/01/22 04:44:33;;;;;;;17.95;7.45;;;3.10;99.90;;;;;;5071923;28;20494;-74
2022/01/22 04:55:00;;;;;;;19.08;8.05;;;3.10;99.90;;;;;;5051809;28;20094;-73
2022/01/22 04:57:33;;;;;;;16.38;8.30;;;3.20;99.90;;;;;;5052332;28;20370;-74
2022/01/22 04:59:59;;;;;;;14.70;7.75;;;3.80;99.90;;;;;;5051569;28;20050;-73
2022/01/22 05:02:25;;;;;;;14.48;8.48;;;3.20;99.90;;;;;;5052017;28;20389;-75
2022/01/22 05:04:50;;;;;;;19.27;8.65;;;3.20;99.90;;;;;;5051742;28;20029;-76
2022/01/22 05:07:16;;;;;;;15.38;9.15;;;3.20;99.90;;;;;;5050725;28;20029;-75
2022/01/22 05:09:42;;;;;;;14.50;8.55;;;3.20;99.90;;;;;;5051159;28;20392;-76
2022/01/22 05:12:09;;;;;;;15.45;8.50;;;3.20;99.90;;;;;;5051546;28;20036;-75
2022/01/22 05:14:34;;;;;;;19.15;9.45;;;3.20;99.90;;;;;;5051824;28;20516;-73
2022/01/22 05:17:05;;;;;;;16.35;8.48;;;3.30;99.90;;;;;;5051702;28;20017;-73
2022/01/22 05:19:39;;;;;;;19.55;7.43;;;3.40;99.90;;;;;;5050238;28;20029;-76
2022/01/22 05:22:16;;;;;;;15.85;7.85;;;3.30;99.90;;;;;;5044051;28;20079;-73
2022/01/22 05:24:46;;;;;;;21.10;9.02;;;3.40;99.90;;;;;;5050713;28;20179;-73
2022/01/22 05:27:28;;;;;;;15.25;8.57;;;3.30;99.90;;;;;;5051332;28;20025;-73
2022/01/22 05:30:11;;;;;;;15.53;8.53;;;3.20;99.90;;;;;;5051312;28;20028;-73
2022/01/22 05:32:54;;;;;;;;;;;3.30;99.90;;;;;;5052255;28;20032;-75
2022/01/22 05:38:07;;;;;;;16.02;7.50;;;3.90;99.90;;;;;;5050453;28;20460;-75
2022/01/22 05:40:33;;;;;;;17.23;8.25;;;3.30;99.90;;;;;;5050519;28;20025;-74
2022/01/22 05:42:59;;;;;;;18.70;8.40;;;4.30;99.90;;;;;;5051687;28;20541;-73
2022/01/22 05:45:25;;;;;;;17.15;8.50;;;4.70;99.90;;;;;;5051377;28;20163;-73
2022/01/22 05:47:50;;;;;;;14.73;7.75;;;3.30;99.90;;;;;;5050146;28;20055;-76
2022/01/22 05:50:37;;;;;;;16.45;7.70;;;3.30;99.90;;;;;;5049553;28;20037;-74
2022/01/22 05:53:15;;;;;;;14.95;8.05;;;3.40;99.90;;;;;;5051315;28;20147;-74
2022/01/22 05:59:35;;;;;;;16.15;8.60;;;3.30;99.90;;;;;;5050958;28;20036;-73
2022/01/22 06:01:20;;;;;;;20.40;8.80;;;3.40;99.90;;;;;;5051574;28;20035;-73
2022/01/22 06:03:46;;;;;;;16.85;9.35;;;4.60;99.90;;;;;;5051294;28;20021;-73
2022/01/22 06:06:12;;;;;;;14.88;7.72;;;3.40;99.90;;;;;;5050908;28;20033;-74
2022/01/22 06:08:47;;;;;;;17.05;8.73;;;3.40;99.90;;;;;;5050672;28;20096;-74
2022/01/22 06:11:21;;;;;;;23.58;10.25;;;3.30;99.90;;;;;;5051080;28;20096;-74
2022/01/22 06:13:47;;;;;;;21.08;10.50;;;5.20;99.90;;;;;;5050226;28;20033;-74
2022/01/22 06:16:16;;;;;;;21.15;9.27;;;3.50;99.90;;;;;;5050812;28;20026;-74
2022/01/22 06:18:43;;;;;;;19.88;9.82;;;3.40;99.90;;;;;;5050567;28;20017;-74
2022/01/22 06:21:09;;;;;;;15.45;8.85;;;3.30;99.90;;;;;;5050946;28;20029;-74
2022/01/22 06:23:36;;;;;;;18.67;9.82;;;3.50;99.90;;;;;;5051255;28;20029;-73
2022/01/22 06:26:03;;;;;;;17.48;9.02;;;3.50;99.90;;;;;;5050441;28;20122;-74
2022/01/22 06:28:29;;;;;;;21.02;9.20;;;3.40;99.90;;;;;;5050777;28;20168;-75
2022/01/22 06:30:55;;;;;;;18.25;8.80;;;3.50;99.90;;;;;;5049652;28;20043;-74
2022/01/22 06:33:21;;;;;;;17.00;9.70;;;3.30;99.90;;;;;;5051352;28;20388;-74
2022/01/22 06:35:46;;;;;;;14.85;8.75;;;3.60;99.90;;;;;;5050870;28;20083;-74
2022/01/22 06:38:13;;;;;;;22.17;10.43;;;4.30;99.90;;;;;;5051174;28;20025;-74
2022/01/22 06:43:05;;;;;;;17.58;8.38;;;3.60;99.90;;;;;;5054986;28;20108;-74
2022/01/22 06:45:31;;;;;;;17.42;10.27;;;3.50;99.90;;;;;;5054828;28;20029;-74
2022/01/22 06:47:56;;;;;;;24.38;10.48;;;3.50;99.90;;;;;;5054427;28;20465;-74
2022/01/22 06:50:22;;;;;;;18.40;10.55;;;3.60;99.90;;;;;;5053698;28;20029;-74
2022/01/22 06:52:57;;;;;;;19.25;10.35;;;3.60;99.90;;;;;;5053300;28;20033;-74
2022/01/22 06:55:40;;;;;;;23.60;9.82;;;4.60;99.90;;;;;;5053080;28;20460;-75
2022/01/22 06:58:06;;;;;;;20.08;10.43;;;3.60;99.90;;;;;;5054302;28;20401;-74
2022/01/22 07:00:31;;;;;;;18.10;9.50;;;3.60;99.90;;;;;;5053652;28;20047;-75
2022/01/22 07:02:57;;;;;;;19.23;9.48;;;3.60;99.90;;;;;;5054562;28;20021;-74
2022/01/22 07:05:22;;;;;;;21.90;10.70;;;3.70;99.90;;;;;;5052827;28;20508;-75
2022/01/22 07:07:48;;;;;;;19.70;10.38;;;3.70;99.90;;;;;;5052539;28;20033;-74
2022/01/22 07:10:14;;;;;;;18.45;10.73;;;4.40;99.90;;;;;;5053221;28;20060;-74
2022/01/22 07:12:41;;;;;;;21.85;11.00;;;3.60;99.90;;;;;;5053118;28;20033;-74
2022/01/22 07:15:07;;;;;;;25.48;10.65;;;3.70;99.90;;;;;;5054119;28;20638;-74
2022/01/22 07:17:36;;;;;;;15.70;9.90;;;3.70;99.90;;;;;;5054072;28;20056;-74
2022/01/22 07:20:05;;;;;;;16.90;9.02;;;3.70;99.90;;;;;;5052981;28;20082;-74
2022/01/22 07:22:36;;;;;;;22.00;11.85;;;3.70;99.90;;;;;;5054014;28;20025;-73
2022/01/22 07:25:02;;;;;;;22.55;10.57;;;3.80;99.90;;;;;;5053618;28;20024;-74
2022/01/22 07:27:28;;;;;;;19.60;10.95;;;3.90;99.90;;;;;;5051621;28;20033;-75
2022/01/22 07:29:54;;;;;;;22.73;10.90;;;3.70;99.90;;;;;;5052085;28;20397;-75
2022/01/22 07:32:29;;;;;;;21.67;11.55;;;3.90;99.90;;;;;;5053730;28;20068;-75
2022/01/22 07:34:55;;;;;;;16.67;9.50;;;4.30;99.90;;;;;;5052606;28;20037;-74
2022/01/22 07:37:21;;;;;;;18.67;10.27;;;3.70;99.90;;;;;;5053801;28;20074;-74
2022/01/22 07:39:47;;;;;;;22.73;10.30;;;4.30;99.90;;;;;;5053630;28;20021;-76
2022/01/22 07:42:12;;;;;;;17.77;10.18;;;3.80;99.90;;;;;;5053779;28;20075;-77
2022/01/22 07:44:38;;;;;;;24.55;11.45;;;3.80;99.90;;;;;;5053916;28;20504;-76
2022/01/22 07:47:03;;;;;;;26.80;11.75;;;3.70;99.90;;;;;;5054621;28;20112;-75
2022/01/22 07:49:29;;;;;;;19.83;10.73;;;3.80;99.90;;;;;;5054665;28;20452;-76
2022/01/22 07:51:55;;;;;;;21.20;10.77;;;3.80;99.90;;;;;;5052328;28;20033;-76
2022/01/22 07:54:21;;;;;;;24.95;9.98;;;3.80;99.90;;;;;;5053409;28;20059;-77
2022/01/22 07:56:47;;;;;;;20.55;9.23;;;3.90;99.90;;;;;;5053258;28;20067;-76
2022/01/22 07:59:13;;;;;;;17.13;10.40;;;3.80;99.90;;;;;;5053760;28;20055;-76
2022/01/22 08:01:38;;;;;;;20.33;11.55;;;5.40;99.90;;;;;;5053430;28;20029;-76
2022/01/22 08:04:04;;;;;;;22.52;10.57;;;4.00;99.90;;;;;;5053786;28;20086;-76
2022/01/22 08:06:30;;;;;;;21.10;11.75;;;3.70;99.90;;;;;;5055552;28;20036;-77
2022/01/22 08:08:56;;;;;;;22.23;10.52;;;3.80;99.90;;;;;;5056900;28;20071;-76
2022/01/22 08:11:21;;;;;;;26.00;11.30;;;5.00;99.90;;;;;;5055415;28;20056;-77
2022/01/22 08:13:47;;;;;;;20.95;10.27;;;3.90;99.90;;;;;;5034371;28;20075;-76
2022/01/22 08:16:12;;;;;;;25.33;11.10;;;4.00;99.90;;;;;;5043322;28;20137;-74
2022/01/22 08:18:38;;;;;;;19.38;12.00;;;4.00;99.90;;;;;;5039951;28;20036;-76
2022/01/22 08:21:04;;;;;;;17.38;10.35;;;4.10;99.90;;;;;;5054322;28;20036;-76
2022/01/22 08:23:32;;;;;;;25.90;12.00;;;4.00;99.90;;;;;;5045332;28;20034;-75
2022/01/22 08:25:58;;;;;;;22.50;11.32;;;3.90;99.90;;;;;;5043663;28;20060;-75
2022/01/22 08:31:26;;;;;;;21.88;10.48;;;4.00;99.90;;;;;;5042866;28;20059;-75
2022/01/22 08:36:39;;;;;;;20.73;10.60;;;4.00;99.90;;;;;;5035047;28;20044;-75
2022/01/22 08:39:06;;;;;;;19.27;10.82;;;4.00;99.90;;;;;;5051452;28;20021;-75
2022/01/22 08:41:33;;;;;;;18.48;10.73;;;6.40;99.90;;;;;;5048722;28;20056;-74
2022/01/22 08:43:59;;;;;;;19.15;10.10;;;3.80;99.90;;;;;;5052422;28;20485;-75
2022/01/22 08:46:25;;;;;;;21.65;10.45;;;4.00;99.90;;;;;;5052123;28;20036;-75
2022/01/22 08:48:51;;;;;;;25.15;10.50;;;5.40;99.90;;;;;;5050458;28;20029;-75
2022/01/22 08:51:16;;;;;;;18.70;9.68;;;5.40;99.90;;;;;;5052379;28;20028;-75
2022/01/22 08:53:42;;;;;;;18.52;10.43;;;4.10;99.90;;;;;;5052232;28;20489;-75
2022/01/22 08:56:09;;;;;;;19.35;8.85;;;4.00;99.90;;;;;;5050503;28;20547;-75
2022/01/22 08:58:35;;;;;;;24.27;9.45;;;4.10;99.90;;;;;;5051585;28;20017;-75
2022/01/22 09:01:01;;;;;;;17.33;8.65;;;4.10;99.90;;;;;;5052019;28;20405;-75
2022/01/22 09:03:27;;;;;;;16.42;8.70;;;4.10;99.90;;;;;;5051880;28;20018;-75
2022/01/22 09:05:54;;;;;;;18.30;9.07;;;4.10;99.90;;;;;;5051882;28;20100;-75
2022/01/22 09:08:20;;;;;;;19.63;8.52;;;4.30;99.90;;;;;;5051974;28;20025;-76
2022/01/22 09:10:46;;;;;;;14.35;8.75;;;4.20;99.90;;;;;;5051182;28;20029;-75
2022/01/22 09:13:12;;;;;;;15.50;8.43;;;5.00;99.90;;;;;;5050670;28;20060;-74
2022/01/22 09:15:38;;;;;;;18.08;8.68;;;4.30;99.90;;;;;;5051744;28;20031;-76
2022/01/22 09:18:06;;;;;;;19.48;9.38;;;4.20;99.90;;;;;;5050202;28;20037;-75
2022/01/22 09:23:09;;;;;;;16.17;8.50;;;4.30;99.90;;;;;;5051848;28;20029;-75
2022/01/22 09:25:36;;;;;;;19.73;8.50;;;4.30;99.90;;;;;;5051793;28;20111;-75
2022/01/22 09:28:03;;;;;;;19.25;8.60;;;4.50;99.90;;;;;;5050295;28;20759;-75
2022/01/22 09:30:30;;;;;;;21.77;8.65;;;4.10;99.90;;;;;;5050887;28;20428;-75
2022/01/22 09:32:56;;;;;;;18.08;9.63;;;4.20;99.90;;;;;;5051596;28;20056;-75
2022/01/22 09:35:21;;;;;;;15.48;8.45;;;4.30;99.90;;;;;;5051420;28;20079;-75
2022/01/22 09:37:47;;;;;;;16.83;8.55;;;4.20;99.90;;;;;;5051356;28;20432;-75
2022/01/22 09:40:13;;;;;;;15.23;8.98;;;4.20;99.90;;;;;;5050936;28;20033;-74
2022/01/22 09:42:40;;;;;;;20.15;8.02;;;5.50;99.90;;;;;;5051335;28;20105;-75
2022/01/22 09:45:07;;;;;;;15.13;7.38;;;4.20;99.90;;;;;;5051207;28;20409;-76
2022/01/22 09:47:34;;;;;;;15.18;8.35;;;4.30;99.90;;;;;;5051402;28;20036;-76
2022/01/22 09:49:59;;;;;;;19.05;8.18;;;4.30;99.90;;;;;;5050872;28;20525;-75
2022/01/22 09:52:26;;;;;;;15.23;8.60;;;6.10;99.90;;;;;;5051647;28;20068;-74
2022/01/22 09:54:51;;;;;;;14.32;7.88;;;4.30;99.90;;;;;;5050318;28;20413;-75
2022/01/22 09:57:17;;;;;;;18.23;8.07;;;4.40;99.90;;;;;;5051245;28;20026;-75
2022/01/22 09:59:43;;;;;;;14.50;8.10;;;4.40;99.90;;;;;;5052678;28;20028;-75
2022/01/22 10:02:11;;;;;;;23.42;7.93;;;4.30;99.90;;;;;;5037930;28;20029;-76
2022/01/22 10:04:39;;;;;;;17.13;8.38;;;4.40;99.90;;;;;;5055458;28;20044;-76
2022/01/22 10:07:13;;;;;;;13.20;7.60;;;4.40;99.90;;;;;;5038529;28;20475;-75
2022/01/22 10:09:58;;;;;;;23.27;8.60;;;4.50;99.90;;;;;;5050288;28;20033;-75
2022/01/22 10:12:25;;;;;;;21.33;7.85;;;4.50;99.90;;;;;;5049756;28;20025;-75
2022/01/22 10:15:17;;;;;;;19.60;7.88;;;4.50;99.90;;;;;;5052363;28;20040;-76
2022/01/22 10:17:48;;;;;;;18.05;7.65;;;4.60;99.90;;;;;;5055203;28;20021;-76
2022/01/22 10:20:40;;;;;;;18.38;7.88;;;4.60;99.90;;;;;;5053096;28;20492;-76
2022/01/22 10:23:23;;;;;;;17.55;8.45;;;4.70;99.90;;;;;;5055146;28;20024;-76
2022/01/22 10:25:56;;;;;;;13.35;7.15;;;4.70;99.90;;;;;;5053606;28;20039;-75
2022/01/22 10:28:24;;;;;;;14.75;7.97;;;4.70;99.90;;;;;;5054888;28;20437;-75
2022/01/22 10:30:58;;;;;;;17.98;7.97;;;5.20;99.90;;;;;;5054931;28;20055;-76
2022/01/22 10:33:30;;;;;;;13.68;7.68;;;4.90;99.90;;;;;;5055326;28;20029;-76
2022/01/22 10:36:18;;;;;;;19.85;8.07;;;4.70;99.90;;;;;;5055038;28;20021;-76
2022/01/22 10:38:52;;;;;;;15.88;7.78;;;5.50;99.90;;;;;;5053501;28;20401;-76
2022/01/22 10:41:41;;;;;;;13.35;7.30;;;5.00;99.90;;;;;;5054951;28;20033;-76
2022/01/22 10:44:15;;;;;;;17.17;7.20;;;4.70;99.90;;;;;;5054576;28;20079;-76
2022/01/22 10:46:47;;;;;;;18.70;8.52;;;4.70;99.90;;;;;;5054449;28;20068;-75
2022/01/22 10:49:24;;;;;;;16.85;7.80;;;4.70;99.90;;;;;;5054306;28;20112;-75
2022/01/22 10:52:03;;;;;;;21.08;8.30;;;4.70;99.90;;;;;;5054684;28;20037;-75
2022/01/22 10:54:35;;;;;;;17.55;9.18;;;4.70;99.90;;;;;;5054267;28;20052;-75
2022/01/22 10:57:18;;;;;;;15.48;8.50;;;4.70;99.90;;;;;;5054102;28;20029;-76
2022/01/22 10:59:52;;;;;;;15.23;7.20;;;4.70;99.90;;;;;;5053865;28;20021;-76
2022/01/22 11:02:34;;;;;;;16.40;8.15;;;4.80;99.90;;;;;;5054666;28;20416;-75
2022/01/22 11:04:59;;;;;;;18.65;7.65;;;4.80;99.90;;;;;;5052904;28;20033;-76
2022/01/22 11:07:25;;;;;;;17.67;8.27;;;5.90;99.90;;;;;;5054353;28;20587;-76
2022/01/22 11:09:51;;;;;;;15.60;6.63;;;4.80;99.90;;;;;;5053569;28;20117;-76
2022/01/22 11:12:16;;;;;;;16.92;7.55;;;5.60;99.90;;;;;;5054022;28;20051;-75
2022/01/22 11:14:43;;;;;;;19.27;8.00;;;5.00;99.90;;;;;;5037140;28;20119;-76
2022/01/22 11:17:09;;;;;;;17.27;9.32;;;5.00;99.90;;;;;;5054437;28;20065;-76
2022/01/22 11:19:37;;;;;;;15.07;8.02;;;5.00;99.90;;;;;;5035724;28;20057;-76
2022/01/22 11:22:05;;;;;;;14.30;8.95;;;5.20;99.90;;;;;;5034447;28;20037;-74
2022/01/22 11:24:33;;;;;;;15.43;8.10;;;5.30;99.90;;;;;;5038635;28;20354;-76
2022/01/22 11:27:02;;;;;;;18.40;8.10;;;5.10;99.90;;;;;;5052221;28;20029;-77
2022/01/22 11:29:31;;;;;;;19.70;8.82;;;5.10;99.90;;;;;;5053267;28;20436;-76
2022/01/22 11:32:00;;;;;;;15.13;8.38;;;5.70;99.90;;;;;;5054176;28;20505;-77
2022/01/22 11:34:32;;;;;;;20.13;8.40;;;5.00;99.90;;;;;;5053541;28;20033;-76
2022/01/22 11:37:06;;;;;;;15.03;7.47;;;4.90;99.90;;;;;;5053943;28;20025;-76
2022/01/22 11:39:33;;;;;;;16.45;8.27;;;5.00;99.90;;;;;;5053026;28;20029;-77
2022/01/22 11:41:59;;;;;;;19.73;8.93;;;5.10;99.90;;;;;;5051956;28;20033;-77
2022/01/22 11:44:46;;;;;;;18.95;8.30;;;5.30;99.90;;;;;;5053301;28;20040;-76
2022/01/22 11:47:19;;;;;;;14.38;7.88;;;5.60;99.90;;;;;;5054290;28;20028;-77
2022/01/22 11:50:07;;;;;;;21.05;9.48;;;5.00;99.90;;;;;;5054902;28;20033;-76
2022/01/22 11:52:37;;;;;;;19.00;8.68;;;5.00;99.90;;;;;;5053878;28;20513;-77
2022/01/22 11:55:16;;;;;;;18.38;7.88;;;5.20;99.90;;;;;;5052875;28;20047;-76
2022/01/22 11:57:44;;;;;;;16.85;8.40;;;5.10;99.90;;;;;;5032288;28;20033;-76
2022/01/22 12:00:17;;;;;;;20.17;9.80;;;5.00;99.90;;;;;;5032788;28;20025;-76
2022/01/22 12:02:43;;;;;;;16.02;7.90;;;5.00;99.90;;;;;;5033739;28;20025;-76
2022/01/22 12:05:09;;;;;;;17.58;7.97;;;5.10;99.90;;;;;;5053072;28;20032;-77
2022/01/22 12:07:36;;;;;;;20.38;9.60;;;5.10;99.90;;;;;;5049496;28;20771;-73
2022/01/22 12:10:22;;;;;;;18.67;9.30;;;5.10;99.90;;;;;;5052825;28;20473;-76
2022/01/22 12:15:17;;;;;;;21.60;9.93;;;5.30;99.90;;;;;;5053372;28;20120;-75
2022/01/22 12:18:00;;;;;;;18.73;10.13;;;5.30;99.90;;;;;;5053100;28;20078;-75
2022/01/22 12:23:11;;;;;;;17.38;8.75;;;5.20;99.90;;;;;;5052685;28;20456;-75
2022/01/22 12:25:39;;;;;;;18.48;9.38;;;5.20;99.90;;;;;;5052567;28;20037;-75
2022/01/22 12:28:06;;;;;;;16.48;9.07;;;5.20;99.90;;;;;;5052513;28;20119;-74
2022/01/22 12:30:43;;;;;;;19.90;8.85;;;5.20;99.90;;;;;;5050734;28;20028;-74
2022/01/22 12:33:13;;;;;;;18.65;8.85;;;5.00;99.90;;;;;;5052917;28;20021;-74
2022/01/22 12:35:41;;;;;;;21.13;8.93;;;5.50;99.90;;;;;;5048543;28;20063;-75
2022/01/22 12:38:32;;;;;;;15.85;9.07;;;5.40;99.90;;;;;;5051956;28;20021;-75
2022/01/22 12:41:14;;;;;;;17.55;9.13;;;5.40;99.90;;;;;;5052481;28;20493;-76
2022/01/22 12:43:43;;;;;;;18.05;9.10;;;7.20;99.90;;;;;;5052169;28;20059;-74
2022/01/22 12:46:09;;;;;;;15.48;8.57;;;7.50;99.90;;;;;;5052150;28;20397;-75
2022/01/22 12:48:38;;;;;;;20.67;9.50;;;5.80;99.90;;;;;;5050723;28;20032;-76
2022/01/22 12:51:06;;;;;;;18.55;8.75;;;5.90;99.90;;;;;;5050453;28;20021;-75
2022/01/22 12:53:34;;;;;;;22.70;10.02;;;5.80;99.90;;;;;;5032247;28;20052;-75
2022/01/22 12:56:14;;;;;;;17.35;9.45;;;6.00;99.90;;;;;;5048375;28;20116;-76
2022/01/22 12:58:41;;;;;;;22.25;9.45;;;6.00;99.90;;;;;;5051513;28;20103;-75
2022/01/22 13:01:16;;;;;;;18.70;8.68;;;6.80;99.90;;;;;;5052432;28;20021;-75
2022/01/22 13:03:48;;;;;;;18.63;9.60;;;5.70;99.90;;;;;;5052155;28;20033;-75
2022/01/22 13:06:15;;;;;;;19.00;10.73;;;6.60;99.90;;;;;;5052869;28;20025;-77
2022/01/22 13:08:41;;;;;;;19.70;9.43;;;5.40;99.90;;;;;;5053533;28;20527;-76
2022/01/22 13:11:08;;;;;;;22.50;10.88;;;5.50;99.90;;;;;;5056254;28;20033;-77
2022/01/22 13:13:37;;;;;;;17.23;9.40;;;5.40;99.90;;;;;;5052303;28;20029;-77
2022/01/22 13:16:08;;;;;;;16.52;9.48;;;5.30;99.90;;;;;;5052062;28;20029;-75
2022/01/22 13:18:56;;;;;;;20.25;10.98;;;5.40;99.90;;;;;;5051227;28;20418;-76
2022/01/22 13:21:22;;;;;;;19.90;10.23;;;5.30;99.90;;;;;;5051660;28;20024;-75
2022/01/22 13:24:11;;;;;;;16.55;10.60;;;5.30;99.90;;;;;;5052314;28;20028;-76
2022/01/22 13:29:27;;;;;;;21.13;10.50;;;5.30;99.90;;;;;;5044350;28;20078;-78
2022/01/22 13:32:04;;;;;;;19.48;10.18;;;6.60;99.90;;;;;;5052389;28;20055;-77
2022/01/22 13:34:42;;;;;;;18.85;10.13;;;5.70;99.90;;;;;;5051647;28;20029;-76
2022/01/22 13:37:51;;;;;;;22.25;10.90;;;5.40;99.90;;;;;;5051153;28;20091;-76
2022/01/22 13:47:43;;;;;;;21.15;9.43;;;5.20;99.90;;;;;;5051035;28;20091;-76
2022/01/22 13:48:30;;;;;;;17.48;10.63;;;5.20;99.90;;;;;;5052934;28;20060;-77
2022/01/22 13:50:55;;;;;;;;;;;5.40;99.90;;;;;;5055544;28;20033;-76
2022/01/22 13:53:22;;;;;;;19.58;9.23;;;5.30;99.90;;;;;;5055670;28;19929;-76
2022/01/22 13:56:00;;;;;;;17.38;9.77;;;5.90;99.90;;;;;;5055206;28;20064;-78
2022/01/22 13:58:26;;;;;;;16.40;10.18;;;5.30;99.90;;;;;;5042572;28;20064;-75
2022/01/22 14:00:52;;;;;;;19.48;10.00;;;6.50;99.90;;;;;;5041785;28;20041;-74
2022/01/22 14:05:53;;;;;;;21.20;10.43;;;5.30;99.90;;;;;;5055430;28;20049;-75
2022/01/22 14:08:30;;;;;;;17.92;9.63;;;5.70;99.90;;;;;;5054699;28;20108;-75
2022/01/22 14:11:07;;;;;;;30.33;15.55;;;6.40;99.90;;;;;;5054990;28;20021;-75
2022/01/22 14:13:33;;;;;;;36.83;15.98;;;5.50;99.90;;;;;;5054199;28;20556;-75
2022/01/22 14:16:18;;;;;;;25.77;12.00;;;5.40;99.90;;;;;;5054622;28;20061;-75
2022/01/22 14:18:45;;;;;;;24.15;13.10;;;6.40;99.90;;;;;;5054028;28;20029;-75
2022/01/22 14:21:18;;;;;;;21.25;9.82;;;5.20;99.90;;;;;;5054654;28;20056;-75
2022/01/22 14:23:45;;;;;;;25.73;11.65;;;5.40;99.90;;;;;;5054524;28;20021;-75
2022/01/22 14:26:23;;;;;;;19.75;11.00;;;5.40;99.90;;;;;;5054239;28;20033;-75
2022/01/22 14:28:58;;;;;;;19.50;10.50;;;5.60;99.90;;;;;;5053739;28;20021;-75
2022/01/22 14:31:34;;;;;;;24.20;10.48;;;5.40;99.90;;;;;;5053051;28;20025;-75
2022/01/22 14:34:05;;;;;;;23.77;10.27;;;5.40;99.90;;;;;;5053065;28;20047;-74
2022/01/22 14:36:40;;;;;;;18.33;10.10;;;5.40;99.90;;;;;;5054343;28;20021;-75
2022/01/22 14:43:48;;;;;;;18.15;9.90;;;5.40;99.90;;;;;;5053873;28;20070;-75